Aérodrome :
LOGIN :

S'inscrire | Disclaimer

   EN    FR    IT 

 










Légende :    VFR   VFR Marginal   IFR   IFR Intensif   IFR Très Intensif
Visi : 
Plafond : 
>= 8 km
>= 3000ft
5 à 8 km
1000 à 3000 ft
1500m à 5 km
500 à 1000 ft
800 à 1500m
200 à 500 ft
< 800m
< 200 ft
Symboles :   Orages  Brouillard  Fortes neiges  Fortes précipitations  Vent > 20 kt
SIGMETs :   Divers  Orages  Givrage  Turbulence  Onde Orograph.  Cendres Volcan.







- Altitude de l'aérodrome : 49 ft
- Code IATA : GLZ


EHGR - Gilze-Rijen Airbase

DERNIER METAR :
  • 170939Z AUTO 26008KT 220V300 9999 FEW023 SCT026 23/15 Q1015 BLU 24006KT 9999 SCT025

METARs EXPIRÉS :
  • 170938Z AUTO 26008KT 220V300 9999 SCT023 SCT034 23/15 Q1015 WHT 24006KT 9999 SCT025
  • 170931Z AUTO 25008KT 190V300 9999 FEW023 23/16 Q1015 BLU 24006KT 9999 FEW028
  • 170925Z AUTO 25007KT 230V310 9999 SCT023 24/16 Q1015 WHT 24006KT 9999 FEW028
  • 170917Z AUTO 26008KT 210V300 9999 FEW023 23/15 Q1015 BLU 24006KT 9999 FEW028
  • 170856Z AUTO 23007KT 180V300 9999 SCT023 23/15 Q1015 WHT 24006KT 9999 FEW028
  • 170855Z AUTO 25007KT 200V300 9999 FEW023 23/16 Q1015 BLU 24006KT 9999 FEW028
  • 170826Z AUTO 26008KT 190V340 9999 NCD 22/15 Q1014 BLU 24006KT 9999 FEW028
  • 170755Z AUTO 23007KT 210V290 9999 NCD 21/15 Q1014 BLU 24006KT CAVOK
  • 170725Z AUTO 24008KT 210V290 9999 NCD 21/14 Q1014 BLU 24006KT CAVOK
  • 170655Z AUTO 24006KT 200V280 9999 NCD 21/14 Q1014 BLU 24006KT CAVOK

TAF TAF EHGR
Valide du 17 à 09h jusqu'au 17 à 21h UTC


170832Z 1709/1721 27006KT 9999 FEW025
BECMG 1709/1711 27010G22KT
BECMG 1718/1720 30005KT
Pas de NOTAMs connus pour ce terrain.



MET'MAP, la Météo Aéronautique d'un coup d'oeil ! - Copyright ORBIFLY Décembre 2007 - Disclaimer

ORBIFLY MET'MAP TEAM :

Programmation & Développement : Alexandra Zaïnal
Conception & Développement : Baudouin d'Aumeries
Co-Programmation & Développement : Marc-Olivier Méhu
Soutien technique & logistique : Manuel Goepfert

Contact : metmap@orbifly.com




SOURCES & CREDITS :

   NOAA